Latest Weather Observations for Tuggeranong

IDN60901

Issued at 12:55 pm EST Saturday 26 July 2014 (issued every 10 minutes, with the page automatically refreshed every 10 minutes)

About weather observations | Map of Canberra area stations | Latest observations for Canberra area | Other Formats
Station Details ID: 070339 Name: TUGGERANONG (ISABELLA PLAINS) AWS Lat: -35.42 Lon: 149.09 Height: 586.7 m
Data from the previous 72 hours. | See also: Recent months at Tuggeranong
Date/Time
EST
Tmp

°C
App
Tmp
°C
Dew
Point
°C
Rel
Hum
%
Delta-T

°C
Wind Press
QNH
hPa
Press
MSL
hPa
Rain
since
9 am
mm
Dir
 
Spd
km/h
Gust
km/h
Spd
kts
Gust
kts
26/12:30pm 7.8 5.5 5.9 88 0.9 NNW 7 11 4 6 1022.9 - 0.0
26/12:00pm 8.9 5.9 6.2 83 1.3 NNW 11 17 6 9 1023.3 1024.4 0.0
26/11:30am 8.2 6.2 7.0 92 0.6 NNW 7 11 4 6 1023.8 - 0.0
26/11:00am 7.4 5.0 7.1 98 0.1 WNW 9 13 5 7 1024.1 1025.3 0.0
26/10:30am 6.6 4.5 6.5 99 0.0 W 7 9 4 5 1024.3 - 0.0
26/10:00am 6.3 4.1 6.3 100 0.0 WNW 7 13 4 7 1024.8 1025.9 0.0
26/09:30am 5.6 3.8 5.6 100 0.0 WNW 4 7 2 4 1024.6 - 0.0
26/09:00am 5.2 4.1 5.2 100 0.0 CALM 0 0 0 0 1024.5 1025.7 0.2
26/08:30am 4.6 2.1 4.6 100 0.0 WSW 7 9 4 5 1024.3 - 0.0
26/08:00am 4.6 3.4 4.6 100 0.0 CALM 0 0 0 0 1024.0 1025.2 0.0
26/07:30am 4.6 3.4 4.6 100 0.0 CALM 0 0 0 0 1023.9 - 0.0
26/07:00am 4.4 2.0 4.4 100 0.0 WNW 6 7 3 4 1023.8 1025.0 0.0
26/06:30am 4.2 1.8 4.2 100 0.0 WSW 6 7 3 4 1023.3 - 0.0
26/06:00am 4.1 2.4 4.0 99 0.0 SW 2 6 1 3 1023.2 1024.3 0.0
26/05:30am 4.0 2.3 3.9 99 0.0 W 2 9 1 5 1023.2 - 0.0
26/05:00am 3.7 2.3 3.6 99 0.0 CALM 0 0 0 0 1022.9 1024.0 0.0
26/04:30am 3.5 2.1 3.4 99 0.0 CALM 0 0 0 0 1022.7 - 0.0
26/04:00am 3.2 1.7 3.1 99 0.0 CALM 0 0 0 0 1022.7 1023.9 0.0
26/03:30am 2.7 1.1 2.6 99 0.0 CALM 0 0 0 0 1022.5 - 0.0
26/03:00am 2.0 0.3 1.9 99 0.0 CALM 0 0 0 0 1022.7 1023.9 0.0
26/02:30am 1.1 -0.7 1.0 99 0.0 CALM 0 0 0 0 1023.0 - 0.0
26/02:00am 1.3 -1.6 1.2 99 0.0 NNW 6 7 3 4 1023.0 1024.1 0.0
26/01:30am 1.5 -0.3 1.1 97 0.2 CALM 0 0 0 0 1023.0 - 0.0
26/01:00am 2.4 0.7 2.1 98 0.1 CALM 0 0 0 0 1022.9 1024.0 0.0
26/12:30am 2.2 0.1 1.5 95 0.3 WSW 2 7 1 4 1023.0 - 0.0
26/12:00am 3.7 1.1 3.4 98 0.1 E 6 6 3 3 1023.0 1024.1 0.0
 
Date/Time
EST
Tmp

°C
App
Tmp
°C
Dew
Point
°C
Rel
Hum
%
Delta-T

°C
Wind Press
QNH
hPa
Press
MSL
hPa
Rain
since
9 am
mm
Dir
 
Spd
km/h
Gust
km/h
Spd
kts
Gust
kts
25/11:30pm 3.8 1.1 2.9 94 0.4 S 6 9 3 5 1023.0 - 0.0
25/11:00pm 4.7 2.2 3.7 93 0.4 E 6 7 3 4 1022.9 1024.0 0.0
25/10:30pm 5.3 3.9 3.6 89 0.7 CALM 0 0 0 0 1022.7 - 0.0
25/10:00pm 6.5 4.7 3.3 80 1.4 W 2 7 1 4 1022.5 1023.7 0.0
25/09:30pm 9.3 7.2 6.6 83 1.3 N 7 11 4 6 1022.3 - 0.0
25/09:00pm 7.7 5.6 5.8 88 0.9 NNE 6 9 3 5 1022.1 1023.2 0.0
25/08:30pm 6.8 5.6 4.5 85 1.0 CALM 0 4 0 2 1022.1 - 0.0
25/08:00pm 7.3 4.9 4.4 82 1.3 E 6 7 3 4 1021.9 1023.0 0.0
25/07:30pm 9.1 6.7 5.1 76 1.9 E 7 9 4 5 1021.7 - 0.0
25/07:00pm 10.4 8.1 5.6 72 2.3 NNW 7 11 4 6 1021.5 1022.6 0.0
25/06:30pm 10.9 8.3 6.1 72 2.3 NW 9 13 5 7 1021.4 - 0.0
25/06:00pm 11.0 8.8 6.2 72 2.3 NW 7 9 4 5 1021.1 1022.2 0.0
25/05:30pm 12.2 9.9 5.8 65 3.1 NNW 7 13 4 7 1020.7 - 0.0
25/05:00pm 13.0 9.4 5.2 59 3.7 WNW 13 20 7 11 1020.3 1021.4 0.0
25/04:30pm 14.1 10.3 5.7 57 4.1 NW 15 20 8 11 1019.9 - 0.0
25/04:00pm 14.7 11.0 6.3 57 4.2 WNW 15 20 8 11 1019.5 1020.6 0.0
25/03:30pm 14.8 11.5 6.4 57 4.2 NNW 13 24 7 13 1019.4 - 0.0
25/03:00pm 15.0 11.0 6.6 57 4.2 NNW 17 28 9 15 1019.3 1020.3 0.0
25/02:30pm 14.8 10.9 6.9 59 4.0 NNW 17 28 9 15 1019.1 - 0.0
25/02:00pm 15.2 11.3 7.2 59 4.1 NNW 17 24 9 13 1019.1 1020.2 0.0
25/01:30pm 15.1 11.6 7.2 59 4.0 N 15 20 8 11 1019.4 - 0.0
25/01:00pm 15.0 12.1 8.0 63 3.6 N 13 19 7 10 1019.5 1020.6 0.0
25/12:30pm 13.7 10.4 8.1 69 2.9 N 15 20 8 11 1019.9 - 0.0
25/12:00pm 12.8 9.8 7.9 72 2.5 NNW 13 20 7 11 1020.7 1021.8 0.0
25/11:30am 10.5 8.2 7.6 82 1.4 W 9 13 5 7 1021.2 - 0.0
25/11:00am 9.4 7.9 8.3 93 0.5 W 6 9 3 5 1021.5 1022.6 0.0
25/10:30am 6.5 4.9 6.5 100 0.0 WNW 4 7 2 4 1021.6 - 0.0
25/10:00am 4.6 2.3 4.6 100 0.0 WSW 6 7 3 4 1021.6 1022.7 0.0
25/09:30am 3.5 2.1 3.5 100 0.0 CALM 0 0 0 0 1021.6 - 0.0
25/09:00am 2.7 0.8 2.6 99 0.0 SW 2 6 1 3 1021.5 1022.6 0.6
25/08:30am 2.1 0.4 2.0 99 0.0 CALM 0 0 0 0 1021.3 - 0.6
25/08:00am 1.6 -0.2 1.5 99 0.0 CALM 0 0 0 0 1020.7 1021.8 0.6
25/07:30am 1.0 -0.8 0.9 99 0.0 CALM 0 0 0 0 1020.4 - 0.6
25/07:00am 1.1 -0.7 1.0 99 0.0 CALM 0 0 0 0 1020.1 1021.2 0.6
25/06:30am 1.2 -0.6 1.1 99 0.0 CALM 0 0 0 0 1019.8 - 0.6
25/06:00am 1.2 -0.6 1.1 99 0.0 CALM 0 0 0 0 1019.7 1020.8 0.4
25/05:30am 1.6 -0.2 1.5 99 0.0 CALM 0 0 0 0 1019.4 - 0.4
25/05:00am 1.9 0.2 1.8 99 0.0 CALM 0 0 0 0 1019.1 1020.2 0.4
25/04:30am 2.1 0.4 2.0 99 0.0 CALM 0 0 0 0 1019.1 - 0.4
25/04:00am 2.5 0.9 2.4 99 0.0 CALM 0 0 0 0 1019.0 1020.1 0.4
25/03:30am 2.2 0.5 2.1 99 0.0 CALM 0 0 0 0 1019.1 - 0.4
25/03:00am 2.6 1.0 2.5 99 0.0 CALM 0 0 0 0 1019.3 1020.3 0.4
25/02:30am 2.4 0.8 2.3 99 0.0 CALM 0 0 0 0 1019.3 - 0.4
25/02:00am 3.2 1.7 3.1 99 0.0 CALM 0 0 0 0 1019.1 1020.2 0.4
25/01:30am 3.8 2.4 3.7 99 0.0 CALM 0 0 0 0 1019.3 - 0.4
25/01:00am 4.8 3.6 4.7 99 0.0 CALM 0 0 0 0 1019.4 1020.4 0.4
25/12:30am 5.0 3.9 4.9 99 0.0 CALM 0 0 0 0 1019.5 - 0.4
25/12:00am 5.4 4.3 5.3 99 0.0 CALM 0 0 0 0 1019.6 1020.7 0.4
 
Date/Time
EST
Tmp

°C
App
Tmp
°C
Dew
Point
°C
Rel
Hum
%
Delta-T

°C
Wind Press
QNH
hPa
Press
MSL
hPa
Rain
since
9 am
mm
Dir
 
Spd
km/h
Gust
km/h
Spd
kts
Gust
kts
24/11:30pm 6.3 5.5 6.3 100 0.0 CALM 0 0 0 0 1019.8 - 0.4
24/11:00pm 6.2 5.3 6.2 100 0.0 CALM 0 0 0 0 1020.1 1021.2 0.4
24/10:30pm 6.2 5.3 6.2 100 0.0 CALM 0 0 0 0 1020.1 - 0.4
24/10:00pm 6.0 4.3 5.9 99 0.0 SW 4 7 2 4 1020.3 1021.4 0.4
24/09:30pm 6.3 4.1 6.3 100 0.0 E 7 11 4 6 1020.0 - 0.4
24/09:00pm 5.6 4.6 5.5 99 0.0 CALM 0 0 0 0 1020.2 1021.3 0.2
24/08:30pm 6.0 5.1 5.9 99 0.0 CALM 0 0 0 0 1019.7 - 0.2
24/08:00pm 6.0 5.0 5.6 97 0.2 CALM 0 0 0 0 1019.8 1020.9 0.2
24/07:30pm 6.9 6.0 6.0 94 0.4 CALM 0 0 0 0 1019.4 - 0.2
24/07:00pm 7.2 5.9 6.1 93 0.5 WNW 2 6 1 3 1019.4 1020.4 0.0
24/06:30pm 7.4 6.4 5.4 87 0.9 CALM 0 0 0 0 1018.9 - 0.0
24/06:00pm 8.2 6.8 5.7 84 1.2 S 2 7 1 4 1018.6 1019.7 0.0
24/05:30pm 8.3 7.2 5.2 81 1.4 CALM 0 0 0 0 1018.7 - 0.0
24/05:00pm 8.9 7.8 5.1 77 1.8 CALM 0 0 0 0 1018.4 1019.5 0.0
24/04:30pm 9.4 8.3 5.2 75 2.0 CALM 0 0 0 0 1018.4 - 0.0
24/04:00pm 9.8 8.7 5.0 72 2.2 CALM 0 0 0 0 1018.3 1019.4 0.0
24/03:30pm 10.0 8.9 5.0 71 2.3 CALM 0 0 0 0 1018.3 - 0.0
24/03:00pm 10.1 7.7 4.5 68 2.6 WNW 6 7 3 4 1018.2 1019.3 0.0
24/02:30pm 10.7 9.5 4.8 67 2.8 CALM 0 0 0 0 1018.1 - 0.0
24/02:00pm 10.5 9.0 5.1 69 2.5 SSW 2 6 1 3 1018.0 1019.0 0.0
24/01:30pm 9.5 7.7 5.3 75 2.0 ESE 4 6 2 3 1018.7 - 0.0
24/01:00pm 8.3 6.4 4.7 78 1.6 SE 4 7 2 4 1019.4 1020.4 0.0
24/12:30pm 7.7 5.2 4.7 81 1.4 SE 7 9 4 5 1020.1 - 0.0
24/12:00pm 7.5 6.2 3.9 78 1.6 CALM 0 0 0 0 1021.1 1022.2 0.0
24/11:30am 6.9 4.3 3.2 77 1.6 NW 6 9 3 5 1021.1 - 0.0
24/11:00am 6.0 4.5 3.2 82 1.2 CALM 0 0 0 0 1021.3 1022.4 0.0
24/10:30am 5.4 4.0 3.3 86 0.9 CALM 0 0 0 0 1021.4 - 0.0
24/10:00am 4.3 2.7 2.5 88 0.7 CALM 0 0 0 0 1021.8 1022.9 0.0
24/09:30am 3.3 1.6 2.1 92 0.5 CALM 0 0 0 0 1021.9 - 0.0
24/09:00am 2.2 0.5 1.6 96 0.2 CALM 0 4 0 2 1021.8 1022.9 0.0
24/08:30am 0.8 -1.1 0.8 100 0.0 CALM 0 0 0 0 1021.8 - 0.0
24/08:00am 0.3 -2.8 0.3 100 0.0 NE 6 7 3 4 1021.4 1022.5 0.0
24/07:30am -0.7 -3.6 -1.0 98 0.1 N 4 7 2 4 1021.3 - 0.0
24/07:00am -0.4 -2.5 -0.5 99 0.0 CALM 0 0 0 0 1021.2 1022.3 0.0
24/06:30am -0.8 -2.9 -0.9 99 0.0 CALM 0 0 0 0 1021.3 - 0.0
24/06:00am -0.6 -2.7 -0.7 99 0.0 CALM 0 0 0 0 1020.9 1022.1 0.0
24/05:30am -0.7 -2.8 -0.7 100 0.0 CALM 0 0 0 0 1020.8 - 0.0
24/05:00am -1.1 -3.3 -1.2 99 0.0 CALM 0 0 0 0 1020.8 1021.9 0.0
24/04:30am -1.5 -3.7 -1.9 97 0.1 CALM 0 0 0 0 1020.7 - 0.0
24/04:00am -1.3 -3.5 -1.6 98 0.0 CALM 0 0 0 0 1020.7 1021.8 0.0
24/03:30am -1.1 -3.3 -1.5 97 0.1 CALM 0 0 0 0 1020.7 - 0.0
24/03:00am -0.5 -2.6 -0.6 99 0.0 CALM 0 0 0 0 1020.6 1021.7 0.0
24/02:30am -0.9 -3.0 -1.0 99 0.0 CALM 0 0 0 0 1020.7 - 0.0
24/02:00am -0.7 -3.9 -0.8 99 0.0 ESE 6 9 3 5 1020.8 1021.9 0.0
24/01:30am -1.4 -3.7 -2.0 96 0.1 CALM 0 0 0 0 1021.1 - 0.0
24/01:00am -1.1 -3.3 -1.7 96 0.2 CALM 0 0 0 0 1021.3 1022.4 0.0
24/12:30am -0.7 -2.9 -1.3 96 0.2 CALM 0 0 0 0 1021.6 - 0.0
24/12:00am -0.3 -2.4 -0.9 96 0.2 CALM 0 0 0 0 1022.0 1023.1 0.0
 
Date/Time
EST
Tmp

°C
App
Tmp
°C
Dew
Point
°C
Rel
Hum
%
Delta-T

°C
Wind Press
QNH
hPa
Press
MSL
hPa
Rain
since
9 am
mm
Dir
 
Spd
km/h
Gust
km/h
Spd
kts
Gust
kts
23/11:30pm 0.0 -2.1 -0.6 96 0.2 CALM 0 0 0 0 1022.2 - 0.0
23/11:00pm 0.6 -1.4 0.0 96 0.2 CALM 0 0 0 0 1022.3 1023.5 0.0
23/10:30pm 0.8 -1.2 0.1 95 0.3 CALM 0 0 0 0 1022.6 - 0.0
23/10:00pm 1.0 -1.0 0.0 93 0.4 CALM 0 0 0 0 1022.7 1023.9 0.0
23/09:30pm 2.0 0.1 0.7 91 0.5 CALM 0 0 0 0 1022.9 - 0.0
23/09:00pm 2.8 0.3 1.5 91 0.5 E 4 6 2 3 1022.7 1023.9 0.0
23/08:30pm 3.9 1.2 2.4 90 0.6 ESE 6 7 3 4 1022.5 - 0.0
23/08:00pm 4.1 2.5 2.5 89 0.7 CALM 0 0 0 0 1022.4 1023.6 0.0
23/07:30pm 5.0 2.2 3.2 88 0.8 E 7 9 4 5 1022.3 - 0.0
23/07:00pm 5.9 3.4 3.9 87 0.9 E 6 7 3 4 1022.1 1023.2 0.0
23/06:30pm 6.6 5.3 4.3 85 1.0 CALM 0 0 0 0 1021.9 - 0.0
23/06:00pm 7.2 5.8 3.4 77 1.7 CALM 0 0 0 0 1021.7 1022.8 0.0
23/05:30pm 8.3 6.6 4.1 75 1.9 NNW 2 6 1 3 1021.6 - 0.0
23/05:00pm 9.4 6.8 4.2 70 2.4 NW 7 9 4 5 1021.3 1022.4 0.0
23/04:30pm 10.5 7.9 4.4 66 2.8 NW 7 11 4 6 1021.3 - 0.0
23/04:00pm 11.5 8.2 4.7 63 3.2 NNW 11 15 6 8 1021.2 1022.3 0.0
23/03:30pm 12.6 9.8 5.3 61 3.5 NNW 9 15 5 8 1021.1 - 0.0
23/03:00pm 12.6 9.6 4.3 57 3.9 NNW 9 15 5 8 1020.9 1022.1 0.0
23/02:30pm 12.7 9.8 4.4 57 3.9 NW 9 13 5 7 1021.1 - 0.0
23/02:00pm 12.7 10.0 3.9 55 4.1 WNW 7 15 4 8 1021.2 1022.3 0.0
23/01:30pm 13.0 10.5 4.7 57 3.9 N 7 11 4 6 1021.5 - 0.0
23/01:00pm 12.9 10.1 5.1 59 3.7 NNE 9 19 5 10 1022.0 1023.1 0.0

Latest Capital City Observations: Canberra | Sydney | Melbourne | Brisbane | Adelaide | Perth | Hobart | Darwin

Other Formats:

Comma delimited format used in spreadsheet applications
http://www.bom.gov.au/fwo/IDN60903/IDN60903.94925.axf

JavaScript Object Notation format (JSON) in row-major order
http://www.bom.gov.au/fwo/IDN60903/IDN60903.94925.json